Airport ID:1G3
Update Time (UTC):05/12/2020 15:19
Wind Speed (Knots):10
Wind Direction (Magnetic):310
Temperature (°C):3
Dew Point (°C):-2
Humidity (%):73
Altimeter (inHg):30.04
Density Altitude (Feet):
Visibility:10+
Clouds (Hundreds of feet):***
Present Weather:
METAR:METAR 1G3 051515Z AUTO 32010KT 10SM 03/M02 A3004 RMK A01

The data displayed is for advisory purposes only and is not to be used for flight planning or operations.